sensor_id;sensor_type;location;lat;lon;timestamp;temperature;humidity
65038;DHT22;51605;47.040;15.294;2023-03-14T00:01:56;20.40;55.10
65038;DHT22;51605;47.040;15.294;2023-03-14T00:04:22;20.40;54.90
65038;DHT22;51605;47.040;15.294;2023-03-14T00:06:48;20.40;55.00
65038;DHT22;51605;47.040;15.294;2023-03-14T00:09:15;20.40;55.00
65038;DHT22;51605;47.040;15.294;2023-03-14T00:11:41;20.40;55.00
65038;DHT22;51605;47.040;15.294;2023-03-14T00:14:06;20.40;55.00
65038;DHT22;51605;47.040;15.294;2023-03-14T00:16:32;20.40;55.00
65038;DHT22;51605;47.040;15.294;2023-03-14T00:18:59;20.40;55.00
65038;DHT22;51605;47.040;15.294;2023-03-14T00:21:25;20.40;55.00
65038;DHT22;51605;47.040;15.294;2023-03-14T00:23:51;20.40;55.00
65038;DHT22;51605;47.040;15.294;2023-03-14T00:26:19;20.40;55.00
65038;DHT22;51605;47.040;15.294;2023-03-14T00:28:46;20.40;55.10
65038;DHT22;51605;47.040;15.294;2023-03-14T00:31:14;20.40;55.00
65038;DHT22;51605;47.040;15.294;2023-03-14T00:33:41;20.40;55.00
65038;DHT22;51605;47.040;15.294;2023-03-14T00:36:09;20.40;55.00
65038;DHT22;51605;47.040;15.294;2023-03-14T00:38:35;20.40;55.00
65038;DHT22;51605;47.040;15.294;2023-03-14T00:41:22;20.40;55.00
65038;DHT22;51605;47.040;15.294;2023-03-14T00:43:48;20.40;55.10
65038;DHT22;51605;47.040;15.294;2023-03-14T00:46:14;20.40;55.00
65038;DHT22;51605;47.040;15.294;2023-03-14T00:48:40;20.40;55.00
65038;DHT22;51605;47.040;15.294;2023-03-14T00:51:07;20.40;55.00
65038;DHT22;51605;47.040;15.294;2023-03-14T00:53:38;20.40;55.00
65038;DHT22;51605;47.040;15.294;2023-03-14T00:56:09;20.40;55.00
65038;DHT22;51605;47.040;15.294;2023-03-14T00:58:35;20.40;55.00
65038;DHT22;51605;47.040;15.294;2023-03-14T01:01:09;20.40;55.00
65038;DHT22;51605;47.040;15.294;2023-03-14T01:03:35;20.40;55.10
65038;DHT22;51605;47.040;15.294;2023-03-14T01:06:15;20.40;55.00
65038;DHT22;51605;47.040;15.294;2023-03-14T01:08:42;20.40;55.00
65038;DHT22;51605;47.040;15.294;2023-03-14T01:11:16;20.40;55.00
65038;DHT22;51605;47.040;15.294;2023-03-14T01:13:42;20.40;55.00
65038;DHT22;51605;47.040;15.294;2023-03-14T01:16:09;20.40;55.00
65038;DHT22;51605;47.040;15.294;2023-03-14T01:18:36;20.40;55.00
65038;DHT22;51605;47.040;15.294;2023-03-14T01:21:07;20.40;55.10
65038;DHT22;51605;47.040;15.294;2023-03-14T01:23:34;20.40;55.00
65038;DHT22;51605;47.040;15.294;2023-03-14T01:26:00;20.40;55.00
65038;DHT22;51605;47.040;15.294;2023-03-14T01:28:25;20.40;55.00
65038;DHT22;51605;47.040;15.294;2023-03-14T01:30:51;20.40;55.00
65038;DHT22;51605;47.040;15.294;2023-03-14T01:33:17;20.40;55.00
65038;DHT22;51605;47.040;15.294;2023-03-14T01:35:42;20.40;55.00
65038;DHT22;51605;47.040;15.294;2023-03-14T01:38:08;20.40;55.00
65038;DHT22;51605;47.040;15.294;2023-03-14T01:40:34;20.40;55.90
65038;DHT22;51605;47.040;15.294;2023-03-14T01:43:14;20.40;55.00
65038;DHT22;51605;47.040;15.294;2023-03-14T01:51:20;20.40;54.90
65038;DHT22;51605;47.040;15.294;2023-03-14T01:53:49;20.40;55.00
65038;DHT22;51605;47.040;15.294;2023-03-14T01:56:16;20.40;54.90
65038;DHT22;51605;47.040;15.294;2023-03-14T01:58:46;20.40;55.00
65038;DHT22;51605;47.040;15.294;2023-03-14T02:01:16;20.40;54.90
65038;DHT22;51605;47.040;15.294;2023-03-14T02:03:52;20.40;54.90
65038;DHT22;51605;47.040;15.294;2023-03-14T02:06:24;20.40;54.90
65038;DHT22;51605;47.040;15.294;2023-03-14T02:08:52;20.40;54.90
65038;DHT22;51605;47.040;15.294;2023-03-14T02:11:18;20.40;54.90
65038;DHT22;51605;47.040;15.294;2023-03-14T02:13:44;20.40;55.00
65038;DHT22;51605;47.040;15.294;2023-03-14T02:16:10;20.40;54.90
65038;DHT22;51605;47.040;15.294;2023-03-14T02:18:37;20.40;55.00
65038;DHT22;51605;47.040;15.294;2023-03-14T02:26:40;20.40;54.90
65038;DHT22;51605;47.040;15.294;2023-03-14T02:29:07;20.40;54.90
65038;DHT22;51605;47.040;15.294;2023-03-14T02:31:33;20.40;54.90
65038;DHT22;51605;47.040;15.294;2023-03-14T02:34:00;20.40;54.90
65038;DHT22;51605;47.040;15.294;2023-03-14T02:36:26;20.40;54.90
65038;DHT22;51605;47.040;15.294;2023-03-14T02:39:06;20.40;54.90
65038;DHT22;51605;47.040;15.294;2023-03-14T02:41:34;20.40;54.80
65038;DHT22;51605;47.040;15.294;2023-03-14T02:44:00;20.40;54.90
65038;DHT22;51605;47.040;15.294;2023-03-14T02:46:25;20.40;54.80
65038;DHT22;51605;47.040;15.294;2023-03-14T02:49:10;20.40;54.90
65038;DHT22;51605;47.040;15.294;2023-03-14T02:51:37;20.40;54.90
65038;DHT22;51605;47.040;15.294;2023-03-14T02:54:03;20.40;54.90
65038;DHT22;51605;47.040;15.294;2023-03-14T02:56:28;20.40;54.90
65038;DHT22;51605;47.040;15.294;2023-03-14T02:58:54;20.40;54.90
65038;DHT22;51605;47.040;15.294;2023-03-14T03:01:20;20.40;55.00
65038;DHT22;51605;47.040;15.294;2023-03-14T03:03:45;20.40;54.90
65038;DHT22;51605;47.040;15.294;2023-03-14T03:06:11;20.40;54.90
65038;DHT22;51605;47.040;15.294;2023-03-14T03:08:37;20.40;55.00
65038;DHT22;51605;47.040;15.294;2023-03-14T03:11:03;20.40;55.00
65038;DHT22;51605;47.040;15.294;2023-03-14T03:13:29;20.40;54.90
65038;DHT22;51605;47.040;15.294;2023-03-14T03:15:54;20.40;54.90
65038;DHT22;51605;47.040;15.294;2023-03-14T03:18:20;20.40;55.00
65038;DHT22;51605;47.040;15.294;2023-03-14T03:20:46;20.40;54.90
65038;DHT22;51605;47.040;15.294;2023-03-14T03:23:12;20.40;55.00
65038;DHT22;51605;47.040;15.294;2023-03-14T03:25:38;20.40;55.00
65038;DHT22;51605;47.040;15.294;2023-03-14T03:28:03;20.40;55.00
65038;DHT22;51605;47.040;15.294;2023-03-14T03:30:36;20.40;55.00
65038;DHT22;51605;47.040;15.294;2023-03-14T03:33:02;20.40;55.00
65038;DHT22;51605;47.040;15.294;2023-03-14T03:35:27;20.40;54.90
65038;DHT22;51605;47.040;15.294;2023-03-14T03:37:53;20.40;54.90
65038;DHT22;51605;47.040;15.294;2023-03-14T03:40:19;20.40;54.90
65038;DHT22;51605;47.040;15.294;2023-03-14T03:42:44;20.40;54.90
65038;DHT22;51605;47.040;15.294;2023-03-14T03:45:10;20.40;55.00
65038;DHT22;51605;47.040;15.294;2023-03-14T03:47:36;20.40;54.90
65038;DHT22;51605;47.040;15.294;2023-03-14T03:50:01;20.40;54.80
65038;DHT22;51605;47.040;15.294;2023-03-14T03:52:27;20.40;54.90
65038;DHT22;51605;47.040;15.294;2023-03-14T03:54:53;20.40;54.90
65038;DHT22;51605;47.040;15.294;2023-03-14T03:57:19;20.40;54.80
65038;DHT22;51605;47.040;15.294;2023-03-14T03:59:45;20.50;55.00
65038;DHT22;51605;47.040;15.294;2023-03-14T04:02:10;20.50;55.00
65038;DHT22;51605;47.040;15.294;2023-03-14T04:04:36;20.40;54.80
65038;DHT22;51605;47.040;15.294;2023-03-14T04:07:03;20.40;54.80
65038;DHT22;51605;47.040;15.294;2023-03-14T04:09:30;20.40;54.90
65038;DHT22;51605;47.040;15.294;2023-03-14T04:11:56;20.40;54.90
65038;DHT22;51605;47.040;15.294;2023-03-14T04:14:21;20.40;55.30
65038;DHT22;51605;47.040;15.294;2023-03-14T04:16:47;20.40;54.90
65038;DHT22;51605;47.040;15.294;2023-03-14T04:19:13;20.40;55.00
65038;DHT22;51605;47.040;15.294;2023-03-14T04:21:38;20.40;55.00
65038;DHT22;51605;47.040;15.294;2023-03-14T04:24:09;20.40;55.00
65038;DHT22;51605;47.040;15.294;2023-03-14T04:26:34;20.40;55.00
65038;DHT22;51605;47.040;15.294;2023-03-14T04:29:00;20.40;55.00
65038;DHT22;51605;47.040;15.294;2023-03-14T04:31:26;20.40;54.90
65038;DHT22;51605;47.040;15.294;2023-03-14T04:33:51;20.40;54.90
65038;DHT22;51605;47.040;15.294;2023-03-14T04:36:17;20.40;54.90
65038;DHT22;51605;47.040;15.294;2023-03-14T04:38:42;20.40;54.80
65038;DHT22;51605;47.040;15.294;2023-03-14T04:41:08;20.40;54.90
65038;DHT22;51605;47.040;15.294;2023-03-14T04:43:34;20.40;54.90
65038;DHT22;51605;47.040;15.294;2023-03-14T04:45:59;20.40;54.80
65038;DHT22;51605;47.040;15.294;2023-03-14T04:48:26;20.50;54.90
65038;DHT22;51605;47.040;15.294;2023-03-14T04:50:52;20.50;54.90
65038;DHT22;51605;47.040;15.294;2023-03-14T04:53:18;20.40;54.80
65038;DHT22;51605;47.040;15.294;2023-03-14T04:55:51;20.40;55.00
65038;DHT22;51605;47.040;15.294;2023-03-14T04:58:18;20.40;54.80
65038;DHT22;51605;47.040;15.294;2023-03-14T05:00:44;20.40;54.80
65038;DHT22;51605;47.040;15.294;2023-03-14T05:03:10;20.40;54.80
65038;DHT22;51605;47.040;15.294;2023-03-14T05:05:36;20.40;54.80
65038;DHT22;51605;47.040;15.294;2023-03-14T05:08:02;20.40;54.80
65038;DHT22;51605;47.040;15.294;2023-03-14T05:10:27;20.40;54.80
65038;DHT22;51605;47.040;15.294;2023-03-14T05:12:53;20.40;54.90
65038;DHT22;51605;47.040;15.294;2023-03-14T05:15:19;20.40;54.90
65038;DHT22;51605;47.040;15.294;2023-03-14T05:17:44;20.40;54.90
65038;DHT22;51605;47.040;15.294;2023-03-14T05:20:11;20.40;54.90
65038;DHT22;51605;47.040;15.294;2023-03-14T05:22:41;20.40;54.80
65038;DHT22;51605;47.040;15.294;2023-03-14T05:25:07;20.40;54.80
65038;DHT22;51605;47.040;15.294;2023-03-14T05:27:33;20.40;54.80
65038;DHT22;51605;47.040;15.294;2023-03-14T05:29:59;20.40;54.80
65038;DHT22;51605;47.040;15.294;2023-03-14T05:32:25;20.40;54.80
65038;DHT22;51605;47.040;15.294;2023-03-14T05:34:50;20.40;54.80
65038;DHT22;51605;47.040;15.294;2023-03-14T05:37:16;20.40;54.80
65038;DHT22;51605;47.040;15.294;2023-03-14T05:39:42;20.40;54.80
65038;DHT22;51605;47.040;15.294;2023-03-14T05:42:08;20.40;54.80
65038;DHT22;51605;47.040;15.294;2023-03-14T05:44:33;20.40;54.90
65038;DHT22;51605;47.040;15.294;2023-03-14T05:46:59;20.40;54.80
65038;DHT22;51605;47.040;15.294;2023-03-14T05:49:25;20.40;54.80
65038;DHT22;51605;47.040;15.294;2023-03-14T05:51:51;20.40;54.80
65038;DHT22;51605;47.040;15.294;2023-03-14T05:54:16;20.40;54.80
65038;DHT22;51605;47.040;15.294;2023-03-14T05:56:42;20.50;54.90
65038;DHT22;51605;47.040;15.294;2023-03-14T05:59:08;20.40;54.80
65038;DHT22;51605;47.040;15.294;2023-03-14T06:01:34;20.40;54.80
65038;DHT22;51605;47.040;15.294;2023-03-14T06:04:00;20.40;54.80
65038;DHT22;51605;47.040;15.294;2023-03-14T06:06:25;20.40;54.80
65038;DHT22;51605;47.040;15.294;2023-03-14T06:08:51;20.40;54.90
65038;DHT22;51605;47.040;15.294;2023-03-14T06:11:16;20.40;54.90
65038;DHT22;51605;47.040;15.294;2023-03-14T06:13:42;20.40;54.90
65038;DHT22;51605;47.040;15.294;2023-03-14T06:16:08;20.40;54.90
65038;DHT22;51605;47.040;15.294;2023-03-14T06:18:34;20.40;54.90
65038;DHT22;51605;47.040;15.294;2023-03-14T06:20:59;20.50;54.90
65038;DHT22;51605;47.040;15.294;2023-03-14T06:23:25;20.40;54.80
65038;DHT22;51605;47.040;15.294;2023-03-14T06:25:51;20.40;54.80
65038;DHT22;51605;47.040;15.294;2023-03-14T06:28:17;20.40;54.90
65038;DHT22;51605;47.040;15.294;2023-03-14T06:30:42;20.40;54.90
65038;DHT22;51605;47.040;15.294;2023-03-14T06:33:08;20.40;54.90
65038;DHT22;51605;47.040;15.294;2023-03-14T06:35:34;20.40;55.00
65038;DHT22;51605;47.040;15.294;2023-03-14T06:38:00;20.40;55.00
65038;DHT22;51605;47.040;15.294;2023-03-14T06:40:25;20.40;55.00
65038;DHT22;51605;47.040;15.294;2023-03-14T06:42:51;20.40;55.00
65038;DHT22;51605;47.040;15.294;2023-03-14T06:45:17;20.40;55.00
65038;DHT22;51605;47.040;15.294;2023-03-14T06:47:42;20.40;55.00
65038;DHT22;51605;47.040;15.294;2023-03-14T06:50:09;20.40;54.90
65038;DHT22;51605;47.040;15.294;2023-03-14T06:52:35;20.40;54.90
65038;DHT22;51605;47.040;15.294;2023-03-14T06:55:01;20.40;55.00
65038;DHT22;51605;47.040;15.294;2023-03-14T06:57:27;20.40;55.00
65038;DHT22;51605;47.040;15.294;2023-03-14T06:59:52;20.40;55.00
65038;DHT22;51605;47.040;15.294;2023-03-14T07:02:18;20.40;55.00
65038;DHT22;51605;47.040;15.294;2023-03-14T07:04:44;20.40;55.00
65038;DHT22;51605;47.040;15.294;2023-03-14T07:07:09;20.40;55.10
65038;DHT22;51605;47.040;15.294;2023-03-14T07:09:35;20.40;55.00
65038;DHT22;51605;47.040;15.294;2023-03-14T07:12:02;20.40;55.00
65038;DHT22;51605;47.040;15.294;2023-03-14T07:14:29;20.40;54.90
65038;DHT22;51605;47.040;15.294;2023-03-14T07:16:55;20.40;55.80
65038;DHT22;51605;47.040;15.294;2023-03-14T07:19:21;20.40;55.00
65038;DHT22;51605;47.040;15.294;2023-03-14T07:21:46;20.40;55.00
65038;DHT22;51605;47.040;15.294;2023-03-14T07:24:12;20.40;55.00
65038;DHT22;51605;47.040;15.294;2023-03-14T07:26:38;20.40;55.00
65038;DHT22;51605;47.040;15.294;2023-03-14T07:29:04;20.40;55.00
65038;DHT22;51605;47.040;15.294;2023-03-14T07:31:29;20.40;55.00
65038;DHT22;51605;47.040;15.294;2023-03-14T07:33:55;20.40;55.00
65038;DHT22;51605;47.040;15.294;2023-03-14T07:36:21;20.40;54.90
65038;DHT22;51605;47.040;15.294;2023-03-14T07:38:47;20.40;55.00
65038;DHT22;51605;47.040;15.294;2023-03-14T07:41:13;20.40;55.00
65038;DHT22;51605;47.040;15.294;2023-03-14T07:43:39;20.40;55.00
65038;DHT22;51605;47.040;15.294;2023-03-14T07:46:05;20.40;55.00
65038;DHT22;51605;47.040;15.294;2023-03-14T07:48:31;20.40;55.00
65038;DHT22;51605;47.040;15.294;2023-03-14T07:50:57;20.40;54.90
65038;DHT22;51605;47.040;15.294;2023-03-14T07:53:23;20.40;54.90
65038;DHT22;51605;47.040;15.294;2023-03-14T07:55:50;20.40;55.00
65038;DHT22;51605;47.040;15.294;2023-03-14T07:58:17;20.40;55.00
65038;DHT22;51605;47.040;15.294;2023-03-14T08:00:43;20.40;55.00
65038;DHT22;51605;47.040;15.294;2023-03-14T08:03:08;20.40;55.10
65038;DHT22;51605;47.040;15.294;2023-03-14T08:05:35;20.40;55.10
65038;DHT22;51605;47.040;15.294;2023-03-14T08:08:01;20.40;55.10
65038;DHT22;51605;47.040;15.294;2023-03-14T08:10:27;20.40;55.10
65038;DHT22;51605;47.040;15.294;2023-03-14T08:12:55;20.40;55.10
65038;DHT22;51605;47.040;15.294;2023-03-14T08:15:21;20.40;55.10
65038;DHT22;51605;47.040;15.294;2023-03-14T08:17:47;20.40;55.10
65038;DHT22;51605;47.040;15.294;2023-03-14T08:20:20;20.40;55.10
65038;DHT22;51605;47.040;15.294;2023-03-14T08:22:46;20.40;55.10
65038;DHT22;51605;47.040;15.294;2023-03-14T08:25:12;20.40;55.10
65038;DHT22;51605;47.040;15.294;2023-03-14T08:27:38;20.40;55.10
65038;DHT22;51605;47.040;15.294;2023-03-14T08:30:10;20.40;55.10
65038;DHT22;51605;47.040;15.294;2023-03-14T08:32:36;20.40;55.20
65038;DHT22;51605;47.040;15.294;2023-03-14T08:35:03;20.40;55.10
65038;DHT22;51605;47.040;15.294;2023-03-14T08:37:31;20.40;55.10
65038;DHT22;51605;47.040;15.294;2023-03-14T08:39:57;20.40;55.10
65038;DHT22;51605;47.040;15.294;2023-03-14T08:42:22;20.50;55.10
65038;DHT22;51605;47.040;15.294;2023-03-14T08:44:48;20.40;55.00
65038;DHT22;51605;47.040;15.294;2023-03-14T08:47:14;20.40;55.10
65038;DHT22;51605;47.040;15.294;2023-03-14T08:49:39;20.40;55.10
65038;DHT22;51605;47.040;15.294;2023-03-14T08:52:05;20.50;55.10
65038;DHT22;51605;47.040;15.294;2023-03-14T08:54:31;20.40;55.10
65038;DHT22;51605;47.040;15.294;2023-03-14T08:56:57;20.40;55.00
65038;DHT22;51605;47.040;15.294;2023-03-14T08:59:23;20.40;55.00
65038;DHT22;51605;47.040;15.294;2023-03-14T09:01:49;20.40;55.00
65038;DHT22;51605;47.040;15.294;2023-03-14T09:04:15;20.40;55.10
65038;DHT22;51605;47.040;15.294;2023-03-14T09:06:41;20.40;55.10
65038;DHT22;51605;47.040;15.294;2023-03-14T09:09:06;20.40;55.20
65038;DHT22;51605;47.040;15.294;2023-03-14T09:11:33;20.40;55.10
65038;DHT22;51605;47.040;15.294;2023-03-14T09:13:59;20.40;55.20
65038;DHT22;51605;47.040;15.294;2023-03-14T09:16:24;20.40;55.50
65038;DHT22;51605;47.040;15.294;2023-03-14T09:18:50;20.40;55.20
65038;DHT22;51605;47.040;15.294;2023-03-14T09:21:20;20.40;55.30
65038;DHT22;51605;47.040;15.294;2023-03-14T09:23:45;20.40;55.20
65038;DHT22;51605;47.040;15.294;2023-03-14T09:26:11;20.40;55.20
65038;DHT22;51605;47.040;15.294;2023-03-14T09:28:37;20.50;55.20
65038;DHT22;51605;47.040;15.294;2023-03-14T09:31:10;20.40;55.20
65038;DHT22;51605;47.040;15.294;2023-03-14T09:33:36;20.40;55.20
65038;DHT22;51605;47.040;15.294;2023-03-14T09:36:02;20.40;55.20
65038;DHT22;51605;47.040;15.294;2023-03-14T09:38:28;20.40;55.20
65038;DHT22;51605;47.040;15.294;2023-03-14T09:40:54;20.40;55.10
65038;DHT22;51605;47.040;15.294;2023-03-14T09:43:21;20.40;55.20
65038;DHT22;51605;47.040;15.294;2023-03-14T09:45:48;20.40;55.10
65038;DHT22;51605;47.040;15.294;2023-03-14T09:48:22;20.40;55.80
65038;DHT22;51605;47.040;15.294;2023-03-14T09:50:51;20.40;55.50
65038;DHT22;51605;47.040;15.294;2023-03-14T09:53:27;20.40;55.10
65038;DHT22;51605;47.040;15.294;2023-03-14T09:55:54;20.40;55.10
65038;DHT22;51605;47.040;15.294;2023-03-14T09:58:24;20.40;55.20
65038;DHT22;51605;47.040;15.294;2023-03-14T10:00:52;20.40;55.20
65038;DHT22;51605;47.040;15.294;2023-03-14T10:03:29;20.40;55.20
65038;DHT22;51605;47.040;15.294;2023-03-14T10:05:57;20.40;55.20
65038;DHT22;51605;47.040;15.294;2023-03-14T10:08:22;20.40;55.10
65038;DHT22;51605;47.040;15.294;2023-03-14T10:10:49;20.40;55.10
65038;DHT22;51605;47.040;15.294;2023-03-14T10:15:48;20.40;55.10
65038;DHT22;51605;47.040;15.294;2023-03-14T10:18:15;20.40;55.10
65038;DHT22;51605;47.040;15.294;2023-03-14T10:20:48;20.40;55.10
65038;DHT22;51605;47.040;15.294;2023-03-14T10:25:45;20.50;55.20
65038;DHT22;51605;47.040;15.294;2023-03-14T10:28:27;20.40;55.20
65038;DHT22;51605;47.040;15.294;2023-03-14T10:30:54;20.40;55.20
65038;DHT22;51605;47.040;15.294;2023-03-14T10:36:20;20.40;55.20
65038;DHT22;51605;47.040;15.294;2023-03-14T10:38:47;20.40;55.30
65038;DHT22;51605;47.040;15.294;2023-03-14T10:41:23;20.40;55.20
65038;DHT22;51605;47.040;15.294;2023-03-14T10:43:53;20.40;55.20
65038;DHT22;51605;47.040;15.294;2023-03-14T10:46:20;20.50;55.20
65038;DHT22;51605;47.040;15.294;2023-03-14T10:48:46;20.40;55.10
65038;DHT22;51605;47.040;15.294;2023-03-14T10:53:48;20.40;55.20
65038;DHT22;51605;47.040;15.294;2023-03-14T10:56:18;20.40;55.20
65038;DHT22;51605;47.040;15.294;2023-03-14T10:58:48;20.40;55.30
65038;DHT22;51605;47.040;15.294;2023-03-14T11:01:36;20.40;55.20
65038;DHT22;51605;47.040;15.294;2023-03-14T11:04:20;20.40;55.20
65038;DHT22;51605;47.040;15.294;2023-03-14T11:09:44;20.40;55.10
65038;DHT22;51605;47.040;15.294;2023-03-14T11:14:55;20.40;55.00
65038;DHT22;51605;47.040;15.294;2023-03-14T11:17:53;20.40;55.10
65038;DHT22;51605;47.040;15.294;2023-03-14T11:20:32;20.40;55.20
65038;DHT22;51605;47.040;15.294;2023-03-14T11:26:01;20.40;55.10
65038;DHT22;51605;47.040;15.294;2023-03-14T11:28:37;20.50;56.10
65038;DHT22;51605;47.040;15.294;2023-03-14T11:31:28;20.40;55.10
65038;DHT22;51605;47.040;15.294;2023-03-14T11:36:59;20.40;55.10
65038;DHT22;51605;47.040;15.294;2023-03-14T11:39:38;20.40;55.20
65038;DHT22;51605;47.040;15.294;2023-03-14T11:42:04;20.40;56.10
65038;DHT22;51605;47.040;15.294;2023-03-14T11:44:37;20.40;55.10
65038;DHT22;51605;47.040;15.294;2023-03-14T11:47:15;20.40;55.10
65038;DHT22;51605;47.040;15.294;2023-03-14T11:53:04;20.40;55.10
65038;DHT22;51605;47.040;15.294;2023-03-14T11:55:34;20.40;55.20
65038;DHT22;51605;47.040;15.294;2023-03-14T11:58:05;20.40;55.10
65038;DHT22;51605;47.040;15.294;2023-03-14T12:00:35;20.40;55.10
65038;DHT22;51605;47.040;15.294;2023-03-14T12:03:09;20.40;55.20
65038;DHT22;51605;47.040;15.294;2023-03-14T12:10:52;20.40;55.10
65038;DHT22;51605;47.040;15.294;2023-03-14T12:13:20;20.40;55.10
65038;DHT22;51605;47.040;15.294;2023-03-14T12:15:56;20.40;55.10
65038;DHT22;51605;47.040;15.294;2023-03-14T12:18:32;20.40;55.10
65038;DHT22;51605;47.040;15.294;2023-03-14T12:21:00;20.40;55.00
65038;DHT22;51605;47.040;15.294;2023-03-14T12:23:28;20.40;55.10
65038;DHT22;51605;47.040;15.294;2023-03-14T12:28:38;20.40;55.10
65038;DHT22;51605;47.040;15.294;2023-03-14T12:39:43;20.40;55.10
65038;DHT22;51605;47.040;15.294;2023-03-14T12:42:57;20.40;55.20
65038;DHT22;51605;47.040;15.294;2023-03-14T12:47:53;20.40;55.10
65038;DHT22;51605;47.040;15.294;2023-03-14T12:50:25;20.40;55.10
65038;DHT22;51605;47.040;15.294;2023-03-14T12:53:05;20.40;55.10
65038;DHT22;51605;47.040;15.294;2023-03-14T12:58:35;20.40;55.10
65038;DHT22;51605;47.040;15.294;2023-03-14T13:01:05;20.40;55.10
65038;DHT22;51605;47.040;15.294;2023-03-14T13:03:54;20.40;55.10
65038;DHT22;51605;47.040;15.294;2023-03-14T13:06:52;20.40;55.20
65038;DHT22;51605;47.040;15.294;2023-03-14T13:12:12;20.40;55.20
65038;DHT22;51605;47.040;15.294;2023-03-14T13:14:48;20.40;55.20
65038;DHT22;51605;47.040;15.294;2023-03-14T13:17:18;20.40;55.20
65038;DHT22;51605;47.040;15.294;2023-03-14T13:19:52;20.40;55.30
65038;DHT22;51605;47.040;15.294;2023-03-14T13:22:27;20.40;55.30
65038;DHT22;51605;47.040;15.294;2023-03-14T13:25:05;20.40;56.20
65038;DHT22;51605;47.040;15.294;2023-03-14T13:27:33;20.40;55.90
65038;DHT22;51605;47.040;15.294;2023-03-14T13:30:05;20.40;55.60
65038;DHT22;51605;47.040;15.294;2023-03-14T13:32:42;20.40;55.50
65038;DHT22;51605;47.040;15.294;2023-03-14T13:35:24;20.40;55.40
65038;DHT22;51605;47.040;15.294;2023-03-14T13:37:59;20.40;55.30
65038;DHT22;51605;47.040;15.294;2023-03-14T13:40:32;20.40;55.30
65038;DHT22;51605;47.040;15.294;2023-03-14T13:43:25;20.40;55.30
65038;DHT22;51605;47.040;15.294;2023-03-14T13:48:46;20.40;55.20
65038;DHT22;51605;47.040;15.294;2023-03-14T13:51:14;20.40;55.20
65038;DHT22;51605;47.040;15.294;2023-03-14T13:53:45;20.40;55.20
65038;DHT22;51605;47.040;15.294;2023-03-14T13:56:11;20.40;55.20
65038;DHT22;51605;47.040;15.294;2023-03-14T13:58:38;20.40;55.30
65038;DHT22;51605;47.040;15.294;2023-03-14T14:01:10;20.40;55.20
65038;DHT22;51605;47.040;15.294;2023-03-14T14:03:39;20.50;55.30
65038;DHT22;51605;47.040;15.294;2023-03-14T14:06:31;20.40;55.20
65038;DHT22;51605;47.040;15.294;2023-03-14T14:08:58;20.50;55.30
65038;DHT22;51605;47.040;15.294;2023-03-14T14:12:06;20.50;55.50
65038;DHT22;51605;47.040;15.294;2023-03-14T14:14:40;20.40;55.40
65038;DHT22;51605;47.040;15.294;2023-03-14T14:17:13;20.40;55.30
65038;DHT22;51605;47.040;15.294;2023-03-14T14:19:41;20.40;55.30
65038;DHT22;51605;47.040;15.294;2023-03-14T14:22:09;20.40;55.30
65038;DHT22;51605;47.040;15.294;2023-03-14T14:24:36;20.40;55.40
65038;DHT22;51605;47.040;15.294;2023-03-14T14:27:28;20.40;55.40
65038;DHT22;51605;47.040;15.294;2023-03-14T14:30:02;20.40;55.40
65038;DHT22;51605;47.040;15.294;2023-03-14T14:32:39;20.40;55.30
65038;DHT22;51605;47.040;15.294;2023-03-14T14:35:06;20.40;55.30
65038;DHT22;51605;47.040;15.294;2023-03-14T14:37:34;20.50;55.30
65038;DHT22;51605;47.040;15.294;2023-03-14T14:40:26;20.40;55.30
65038;DHT22;51605;47.040;15.294;2023-03-14T14:42:52;20.40;55.50
65038;DHT22;51605;47.040;15.294;2023-03-14T14:45:27;20.40;55.40
65038;DHT22;51605;47.040;15.294;2023-03-14T14:50:36;20.40;55.40
65038;DHT22;51605;47.040;15.294;2023-03-14T14:53:41;20.40;55.40
65038;DHT22;51605;47.040;15.294;2023-03-14T14:56:16;20.40;55.40
65038;DHT22;51605;47.040;15.294;2023-03-14T14:58:45;20.40;55.40
65038;DHT22;51605;47.040;15.294;2023-03-14T15:01:22;20.40;55.30
65038;DHT22;51605;47.040;15.294;2023-03-14T15:03:52;20.40;55.40
65038;DHT22;51605;47.040;15.294;2023-03-14T15:06:19;20.40;55.40
65038;DHT22;51605;47.040;15.294;2023-03-14T15:08:47;20.40;55.30
65038;DHT22;51605;47.040;15.294;2023-03-14T15:11:24;20.40;55.30
65038;DHT22;51605;47.040;15.294;2023-03-14T15:13:51;20.50;55.30
65038;DHT22;51605;47.040;15.294;2023-03-14T15:16:19;20.40;55.30
65038;DHT22;51605;47.040;15.294;2023-03-14T15:18:50;20.40;55.30
65038;DHT22;51605;47.040;15.294;2023-03-14T15:21:17;20.40;55.30
65038;DHT22;51605;47.040;15.294;2023-03-14T15:23:43;20.50;55.40
65038;DHT22;51605;47.040;15.294;2023-03-14T15:26:17;20.50;55.30
65038;DHT22;51605;47.040;15.294;2023-03-14T15:28:43;20.40;55.30
65038;DHT22;51605;47.040;15.294;2023-03-14T15:31:10;20.50;55.30
65038;DHT22;51605;47.040;15.294;2023-03-14T15:33:36;20.50;55.40
65038;DHT22;51605;47.040;15.294;2023-03-14T15:36:03;20.40;55.30
65038;DHT22;51605;47.040;15.294;2023-03-14T15:38:29;20.40;55.30
65038;DHT22;51605;47.040;15.294;2023-03-14T15:40:55;20.40;55.20
65038;DHT22;51605;47.040;15.294;2023-03-14T15:43:20;20.40;55.20
65038;DHT22;51605;47.040;15.294;2023-03-14T15:45:46;20.40;55.10
65038;DHT22;51605;47.040;15.294;2023-03-14T15:48:15;20.40;56.50
65038;DHT22;51605;47.040;15.294;2023-03-14T15:50:42;20.50;56.30
65038;DHT22;51605;47.040;15.294;2023-03-14T15:53:08;20.50;55.80
65038;DHT22;51605;47.040;15.294;2023-03-14T15:55:34;20.50;55.50
65038;DHT22;51605;47.040;15.294;2023-03-14T15:57:59;20.50;55.40
65038;DHT22;51605;47.040;15.294;2023-03-14T16:00:27;20.50;55.30
65038;DHT22;51605;47.040;15.294;2023-03-14T16:02:53;20.40;55.30
65038;DHT22;51605;47.040;15.294;2023-03-14T16:05:19;20.40;55.20
65038;DHT22;51605;47.040;15.294;2023-03-14T16:07:45;20.50;55.40
65038;DHT22;51605;47.040;15.294;2023-03-14T16:10:12;20.40;55.20
65038;DHT22;51605;47.040;15.294;2023-03-14T16:12:39;20.40;55.30
65038;DHT22;51605;47.040;15.294;2023-03-14T16:15:05;20.40;55.30
65038;DHT22;51605;47.040;15.294;2023-03-14T16:17:32;20.40;55.20
65038;DHT22;51605;47.040;15.294;2023-03-14T16:19:57;20.50;55.20
65038;DHT22;51605;47.040;15.294;2023-03-14T16:22:24;20.40;55.10
65038;DHT22;51605;47.040;15.294;2023-03-14T16:24:49;20.40;55.10
65038;DHT22;51605;47.040;15.294;2023-03-14T16:27:15;20.50;55.20
65038;DHT22;51605;47.040;15.294;2023-03-14T16:29:41;20.50;55.90
65038;DHT22;51605;47.040;15.294;2023-03-14T16:32:08;20.40;55.50